コロンボ の空港の天気 - METARとTAF

バンダラナイケ国際空港 ( VCBI / CMB ) - スリランカ コロンボ
飛行場実況気象(Metar)
観測時間07/17 14:40 IST (07/17 09:10 UTC)
風向・風速西南西 6m/s
視程10km以上
天気現象
少しの雲 雲底高度 550m
気温28℃
湿度84%
気圧1007hPa
METARVCBI 170910Z 25012KT 9999 FEW018 28/25 Q1007 NOSIG
過去の天気等 Google飛行場航空写真 Wunderground天気予報

過去48時間のMETAR

飛行場予報(TAF)
発表時間: 7/17 09:10 IST (7/17 03:40 UTC)
予報対象時間: 17日11時 IST ~ 18日17時 IST
風向・風速西 6m/s 瞬間風速 11m/s
視程10km以上
全天の4割程度の雲 雲底高度 520m
17日16時 IST ~ 17日20時 IST に 確率 30% で一時的に
TAF VCBI 170340Z 1706/1812 26012G22KT 9999 SCT017 TX30/1708Z TN26/1800Z
PROB30 TEMPO 1711/1715 1723/1803 6000 -SHRA SCT014 BKN018